Holden, UT (84636)

4:29 PM MDT on October 22, 2014 (GMT -0600)
Oak City | Change Station
CLOSE
Current Station
Personal Weather Station
Location: Oak City, UT
Elevation: 5135 ft
Nearby Weather Stations

Elev 5135 ft 39.37 °N, 112.33 °W | Updated 4 minutes ago

Clear
Clear
64.9 °F
Feels Like 64.9 °F
N
3.0
Wind Variable Wind from WNW
Gusts 5.0 mph

Today
High -- | Low -- °F
--% Chance of Precip.
Yesterday
High -- | Low -- °F
Precip. -- in
7:45 AM 6:40 PM
Waning Crescent, 1% visible
Pressure 30.06 in
Visibility 10.0 miles
Clouds Clear
Dew Point 31 °F
Humidity 28%
Rainfall 0.00 in
Snow Depth Not available.
UV 3 out of 12
Pollen 1.30 out of 12
Air Quality Not available.
Flu Activity Sporadic
METAR KMLF 222152Z AUTO 03007KT 10SM CLR 19/M02 A3014 RMK AO2 SLP177 T01941017 TSNO

More Conditions Fewer Conditions

Pressure 30.06 in
Visibility 10.0 miles
Clouds Clear
Dew Point 31 °F
Humidity 28%
Rainfall 0.00 in
Snow Depth Not available.
UV 3 out of 12
Pollen 1.30 out of 12
Air Quality Not available.
Flu Activity Sporadic
METAR KMLF 222152Z AUTO 03007KT 10SM CLR 19/M02 A3014 RMK AO2 SLP177 T01941017 TSNO

More Conditions Fewer Conditions

10-Day Weather Forecast

Almanac

Astronomy

Oct. 22, 2014 Rise Set
Actual Time 7:45 AM MDT 6:40 PM MDT
Civil Twilight 7:18 AM MDT 7:07 PM MDT
Nautical Twilight 6:47 AM MDT 7:38 PM MDT
Astronomical Twilight 6:16 AM MDT 8:09 PM MDT
Moon 6:31 AM MDT 6:08 PM MDT
Length of Visible Light 11h 48m
Length of Day
10h 54m
Tomorrow will be 2m 23s shorter.
Waning Crescent, 1% of the Moon is Illuminated
Today
Waning Crescent
Oct 23
New
Oct 30
First Quarter
Nov 6
Full
Nov 14
Last Quarter

Today's Extremes

State Highs State Lows

Community

WunderPhotos

Upload Photos

1,764,064 photos uploaded!

WunderBlogs® & News

Nearby

Snow Depth

Station Depth Elevation
Farnsworth Lake 0 in 9600 ft
Big Flat 0 in 10290 ft
Merchant Valley 0 in 8750 ft
Clear Creek #2 0 in 8300 ft
Cascade Mountain 2 in 7768 ft

Earthquake Activity

City Distance Mag. Time & Date
Ferron, Utah 46 miles 2.5 10:53 PM MDT
2014-10-21
Minimum magnitude displayed is 2.5.

Coastal Water Temperatures

Place Temperature
No Stations Reporting

Nearby Weather Stations